sensor_id;sensor_type;location;lat;lon;timestamp;temperature;humidity
15152;DHT22;7676;50.900;6.234;2022-11-03T00:01:37;14.10;99.90
15152;DHT22;7676;50.900;6.234;2022-11-03T00:06:41;14.00;99.90
15152;DHT22;7676;50.900;6.234;2022-11-03T00:11:45;14.10;99.90
15152;DHT22;7676;50.900;6.234;2022-11-03T00:16:47;14.20;99.90
15152;DHT22;7676;50.900;6.234;2022-11-03T00:21:50;14.20;99.90
15152;DHT22;7676;50.900;6.234;2022-11-03T00:26:53;14.10;99.90
15152;DHT22;7676;50.900;6.234;2022-11-03T00:31:56;14.10;99.90
15152;DHT22;7676;50.900;6.234;2022-11-03T00:36:58;14.10;99.90
15152;DHT22;7676;50.900;6.234;2022-11-03T00:42:00;14.10;99.90
15152;DHT22;7676;50.900;6.234;2022-11-03T00:47:03;14.00;99.90
15152;DHT22;7676;50.900;6.234;2022-11-03T00:52:05;14.10;99.90
15152;DHT22;7676;50.900;6.234;2022-11-03T00:57:08;14.00;99.90
15152;DHT22;7676;50.900;6.234;2022-11-03T01:02:10;14.10;99.90
15152;DHT22;7676;50.900;6.234;2022-11-03T01:07:12;14.10;99.90
15152;DHT22;7676;50.900;6.234;2022-11-03T01:12:17;14.30;99.90
15152;DHT22;7676;50.900;6.234;2022-11-03T01:17:25;14.10;99.90
15152;DHT22;7676;50.900;6.234;2022-11-03T01:22:28;14.00;99.90
15152;DHT22;7676;50.900;6.234;2022-11-03T01:27:30;14.10;99.90
15152;DHT22;7676;50.900;6.234;2022-11-03T01:32:35;14.30;99.90
15152;DHT22;7676;50.900;6.234;2022-11-03T01:37:37;14.50;99.90
15152;DHT22;7676;50.900;6.234;2022-11-03T01:42:40;14.50;99.90
15152;DHT22;7676;50.900;6.234;2022-11-03T01:47:42;14.40;99.90
15152;DHT22;7676;50.900;6.234;2022-11-03T01:52:50;14.30;99.90
15152;DHT22;7676;50.900;6.234;2022-11-03T01:58:36;14.30;99.90
15152;DHT22;7676;50.900;6.234;2022-11-03T02:03:34;14.50;99.90
15152;DHT22;7676;50.900;6.234;2022-11-03T02:08:48;14.20;99.90
15152;DHT22;7676;50.900;6.234;2022-11-03T02:13:52;14.20;99.90
15152;DHT22;7676;50.900;6.234;2022-11-03T02:18:55;14.20;99.90
15152;DHT22;7676;50.900;6.234;2022-11-03T02:24:05;14.30;99.90
15152;DHT22;7676;50.900;6.234;2022-11-03T02:29:10;14.20;99.90
15152;DHT22;7676;50.900;6.234;2022-11-03T02:35:07;14.20;99.90
15152;DHT22;7676;50.900;6.234;2022-11-03T02:39:55;14.50;99.90
15152;DHT22;7676;50.900;6.234;2022-11-03T02:45:02;14.50;99.90
15152;DHT22;7676;50.900;6.234;2022-11-03T02:50:07;14.50;99.90
15152;DHT22;7676;50.900;6.234;2022-11-03T02:55:34;14.40;99.90
15152;DHT22;7676;50.900;6.234;2022-11-03T03:01:09;14.20;99.90
15152;DHT22;7676;50.900;6.234;2022-11-03T03:06:32;14.00;99.90
15152;DHT22;7676;50.900;6.234;2022-11-03T03:11:40;13.80;99.90
15152;DHT22;7676;50.900;6.234;2022-11-03T03:17:13;13.60;99.90
15152;DHT22;7676;50.900;6.234;2022-11-03T03:22:40;13.60;99.90
15152;DHT22;7676;50.900;6.234;2022-11-03T03:27:47;13.70;99.90
15152;DHT22;7676;50.900;6.234;2022-11-03T03:32:51;13.50;99.90
15152;DHT22;7676;50.900;6.234;2022-11-03T03:37:59;13.70;99.90
15152;DHT22;7676;50.900;6.234;2022-11-03T03:43:04;13.70;99.90
15152;DHT22;7676;50.900;6.234;2022-11-03T03:48:07;13.90;99.90
15152;DHT22;7676;50.900;6.234;2022-11-03T03:53:11;13.90;99.90
15152;DHT22;7676;50.900;6.234;2022-11-03T03:58:15;13.80;99.90
15152;DHT22;7676;50.900;6.234;2022-11-03T04:03:20;14.00;99.90
15152;DHT22;7676;50.900;6.234;2022-11-03T04:08:23;13.90;99.90
15152;DHT22;7676;50.900;6.234;2022-11-03T04:13:25;14.00;99.90
15152;DHT22;7676;50.900;6.234;2022-11-03T04:18:46;13.90;99.90
15152;DHT22;7676;50.900;6.234;2022-11-03T04:24:06;13.80;99.90
15152;DHT22;7676;50.900;6.234;2022-11-03T04:29:10;13.80;99.90
15152;DHT22;7676;50.900;6.234;2022-11-03T04:34:12;14.00;99.90
15152;DHT22;7676;50.900;6.234;2022-11-03T04:39:18;13.90;99.90
15152;DHT22;7676;50.900;6.234;2022-11-03T04:44:20;14.00;99.90
15152;DHT22;7676;50.900;6.234;2022-11-03T04:49:23;14.20;99.90
15152;DHT22;7676;50.900;6.234;2022-11-03T04:54:25;14.20;99.90
15152;DHT22;7676;50.900;6.234;2022-11-03T04:59:28;14.20;99.90
15152;DHT22;7676;50.900;6.234;2022-11-03T05:04:30;14.20;99.90
15152;DHT22;7676;50.900;6.234;2022-11-03T05:09:33;14.40;99.90
15152;DHT22;7676;50.900;6.234;2022-11-03T05:14:41;14.20;99.90
15152;DHT22;7676;50.900;6.234;2022-11-03T05:19:43;14.20;99.90
15152;DHT22;7676;50.900;6.234;2022-11-03T05:24:46;13.80;99.90
15152;DHT22;7676;50.900;6.234;2022-11-03T05:29:49;13.80;99.90
15152;DHT22;7676;50.900;6.234;2022-11-03T05:34:57;13.60;99.90
15152;DHT22;7676;50.900;6.234;2022-11-03T05:40:06;13.60;99.90
15152;DHT22;7676;50.900;6.234;2022-11-03T05:45:23;14.00;99.90
15152;DHT22;7676;50.900;6.234;2022-11-03T05:50:28;14.00;99.90
15152;DHT22;7676;50.900;6.234;2022-11-03T05:55:34;14.20;99.90
15152;DHT22;7676;50.900;6.234;2022-11-03T06:00:39;14.10;99.90
15152;DHT22;7676;50.900;6.234;2022-11-03T06:05:50;14.20;99.90
15152;DHT22;7676;50.900;6.234;2022-11-03T06:10:54;14.30;99.90
15152;DHT22;7676;50.900;6.234;2022-11-03T06:16:01;14.20;99.90
15152;DHT22;7676;50.900;6.234;2022-11-03T06:21:18;14.40;99.90
15152;DHT22;7676;50.900;6.234;2022-11-03T06:26:24;14.20;99.90
15152;DHT22;7676;50.900;6.234;2022-11-03T06:31:30;14.20;99.90
15152;DHT22;7676;50.900;6.234;2022-11-03T06:36:36;12.10;99.90
15152;DHT22;7676;50.900;6.234;2022-11-03T06:41:38;14.00;99.90
15152;DHT22;7676;50.900;6.234;2022-11-03T06:46:41;13.70;99.90
15152;DHT22;7676;50.900;6.234;2022-11-03T06:51:43;13.60;99.90
15152;DHT22;7676;50.900;6.234;2022-11-03T06:56:45;13.70;99.90
15152;DHT22;7676;50.900;6.234;2022-11-03T07:01:53;13.70;99.90
15152;DHT22;7676;50.900;6.234;2022-11-03T07:07:00;13.60;99.90
15152;DHT22;7676;50.900;6.234;2022-11-03T07:12:09;13.70;99.90
15152;DHT22;7676;50.900;6.234;2022-11-03T07:17:17;13.60;99.90
15152;DHT22;7676;50.900;6.234;2022-11-03T07:22:24;13.70;99.90
15152;DHT22;7676;50.900;6.234;2022-11-03T07:27:30;13.70;99.90
15152;DHT22;7676;50.900;6.234;2022-11-03T07:32:33;13.80;99.90
15152;DHT22;7676;50.900;6.234;2022-11-03T07:37:37;13.80;99.90
15152;DHT22;7676;50.900;6.234;2022-11-03T07:42:39;14.00;99.90
15152;DHT22;7676;50.900;6.234;2022-11-03T07:47:42;13.80;99.90
15152;DHT22;7676;50.900;6.234;2022-11-03T07:52:45;13.90;99.90
15152;DHT22;7676;50.900;6.234;2022-11-03T07:57:47;13.90;99.90
15152;DHT22;7676;50.900;6.234;2022-11-03T08:02:58;14.00;99.90
15152;DHT22;7676;50.900;6.234;2022-11-03T08:08:01;14.10;99.90
15152;DHT22;7676;50.900;6.234;2022-11-03T08:13:03;14.30;99.90
15152;DHT22;7676;50.900;6.234;2022-11-03T08:18:06;14.30;99.90
15152;DHT22;7676;50.900;6.234;2022-11-03T08:23:08;14.30;99.90
15152;DHT22;7676;50.900;6.234;2022-11-03T08:28:27;14.30;99.90
15152;DHT22;7676;50.900;6.234;2022-11-03T08:33:33;14.30;99.90
15152;DHT22;7676;50.900;6.234;2022-11-03T08:38:36;14.30;99.90
15152;DHT22;7676;50.900;6.234;2022-11-03T08:43:39;14.50;99.90
15152;DHT22;7676;50.900;6.234;2022-11-03T08:48:41;14.50;99.90
15152;DHT22;7676;50.900;6.234;2022-11-03T08:53:43;14.50;99.90
15152;DHT22;7676;50.900;6.234;2022-11-03T08:58:47;14.60;99.90
15152;DHT22;7676;50.900;6.234;2022-11-03T09:03:49;14.90;99.90
15152;DHT22;7676;50.900;6.234;2022-11-03T09:08:52;15.00;99.90
15152;DHT22;7676;50.900;6.234;2022-11-03T09:14:15;15.00;99.90
15152;DHT22;7676;50.900;6.234;2022-11-03T09:19:18;15.00;99.90
15152;DHT22;7676;50.900;6.234;2022-11-03T09:24:21;16.30;99.90
15152;DHT22;7676;50.900;6.234;2022-11-03T09:29:24;15.40;99.90
15152;DHT22;7676;50.900;6.234;2022-11-03T09:34:26;15.10;99.90
15152;DHT22;7676;50.900;6.234;2022-11-03T09:39:31;15.10;99.90
15152;DHT22;7676;50.900;6.234;2022-11-03T09:44:35;15.10;99.90
15152;DHT22;7676;50.900;6.234;2022-11-03T09:49:37;15.10;99.90
15152;DHT22;7676;50.900;6.234;2022-11-03T09:59:44;14.70;99.90
15152;DHT22;7676;50.900;6.234;2022-11-03T10:04:48;14.70;99.90
15152;DHT22;7676;50.900;6.234;2022-11-03T10:09:51;14.30;99.90
15152;DHT22;7676;50.900;6.234;2022-11-03T10:14:55;14.20;99.90
15152;DHT22;7676;50.900;6.234;2022-11-03T10:19:58;14.40;99.90
15152;DHT22;7676;50.900;6.234;2022-11-03T10:25:35;13.90;99.90
15152;DHT22;7676;50.900;6.234;2022-11-03T10:36:21;13.60;99.90
15152;DHT22;7676;50.900;6.234;2022-11-03T10:41:28;13.60;99.90
15152;DHT22;7676;50.900;6.234;2022-11-03T10:46:31;13.80;99.90
15152;DHT22;7676;50.900;6.234;2022-11-03T10:52:00;14.10;99.90
15152;DHT22;7676;50.900;6.234;2022-11-03T10:57:09;14.30;99.90
15152;DHT22;7676;50.900;6.234;2022-11-03T11:02:15;14.20;99.90
15152;DHT22;7676;50.900;6.234;2022-11-03T11:07:21;14.50;99.90
15152;DHT22;7676;50.900;6.234;2022-11-03T11:12:26;14.90;99.90
15152;DHT22;7676;50.900;6.234;2022-11-03T11:17:43;15.00;99.90
15152;DHT22;7676;50.900;6.234;2022-11-03T11:22:47;13.20;99.90
15152;DHT22;7676;50.900;6.234;2022-11-03T11:33:12;15.40;99.90
15152;DHT22;7676;50.900;6.234;2022-11-03T11:44:38;15.50;99.90
15152;DHT22;7676;50.900;6.234;2022-11-03T11:49:41;15.50;99.90
15152;DHT22;7676;50.900;6.234;2022-11-03T11:54:43;15.50;99.90
15152;DHT22;7676;50.900;6.234;2022-11-03T11:59:47;15.70;99.90
15152;DHT22;7676;50.900;6.234;2022-11-03T12:04:56;14.20;99.90
15152;DHT22;7676;50.900;6.234;2022-11-03T12:10:26;15.70;99.90
15152;DHT22;7676;50.900;6.234;2022-11-03T12:15:54;15.70;99.90
15152;DHT22;7676;50.900;6.234;2022-11-03T12:20:57;15.80;99.90
15152;DHT22;7676;50.900;6.234;2022-11-03T12:26:01;15.90;99.90
15152;DHT22;7676;50.900;6.234;2022-11-03T12:31:03;15.90;99.90
15152;DHT22;7676;50.900;6.234;2022-11-03T12:36:06;15.90;99.90
15152;DHT22;7676;50.900;6.234;2022-11-03T12:41:09;15.90;99.90
15152;DHT22;7676;50.900;6.234;2022-11-03T12:46:25;15.90;99.90
15152;DHT22;7676;50.900;6.234;2022-11-03T12:51:28;15.50;99.90
15152;DHT22;7676;50.900;6.234;2022-11-03T12:56:30;15.40;99.90
15152;DHT22;7676;50.900;6.234;2022-11-03T13:01:33;15.60;99.90
15152;DHT22;7676;50.900;6.234;2022-11-03T13:06:35;15.60;99.90
15152;DHT22;7676;50.900;6.234;2022-11-03T13:11:37;15.70;99.90
15152;DHT22;7676;50.900;6.234;2022-11-03T13:16:59;15.70;99.90
15152;DHT22;7676;50.900;6.234;2022-11-03T13:22:02;15.80;99.90
15152;DHT22;7676;50.900;6.234;2022-11-03T13:27:04;15.90;99.90
15152;DHT22;7676;50.900;6.234;2022-11-03T13:32:07;15.90;99.90
15152;DHT22;7676;50.900;6.234;2022-11-03T13:37:09;16.10;99.90
15152;DHT22;7676;50.900;6.234;2022-11-03T13:42:12;16.10;99.90
15152;DHT22;7676;50.900;6.234;2022-11-03T13:47:14;16.00;99.90
15152;DHT22;7676;50.900;6.234;2022-11-03T13:52:18;15.90;99.90
15152;DHT22;7676;50.900;6.234;2022-11-03T13:57:20;15.80;99.90
15152;DHT22;7676;50.900;6.234;2022-11-03T14:02:43;16.00;99.90
15152;DHT22;7676;50.900;6.234;2022-11-03T14:08:05;16.20;99.90
15152;DHT22;7676;50.900;6.234;2022-11-03T14:13:08;15.50;99.90
15152;DHT22;7676;50.900;6.234;2022-11-03T14:18:11;15.50;99.90
15152;DHT22;7676;50.900;6.234;2022-11-03T14:23:13;15.10;99.90
15152;DHT22;7676;50.900;6.234;2022-11-03T14:28:15;15.00;99.90
15152;DHT22;7676;50.900;6.234;2022-11-03T14:33:28;14.80;99.90
15152;DHT22;7676;50.900;6.234;2022-11-03T14:38:30;14.70;99.90
15152;DHT22;7676;50.900;6.234;2022-11-03T14:43:33;14.60;99.90
15152;DHT22;7676;50.900;6.234;2022-11-03T14:48:36;14.40;99.90
15152;DHT22;7676;50.900;6.234;2022-11-03T14:53:38;14.40;99.90
15152;DHT22;7676;50.900;6.234;2022-11-03T14:58:41;14.20;99.90
15152;DHT22;7676;50.900;6.234;2022-11-03T15:03:43;14.20;99.90
15152;DHT22;7676;50.900;6.234;2022-11-03T15:08:46;14.30;99.90
15152;DHT22;7676;50.900;6.234;2022-11-03T15:13:54;14.40;99.90
15152;DHT22;7676;50.900;6.234;2022-11-03T15:18:57;14.30;99.90
15152;DHT22;7676;50.900;6.234;2022-11-03T15:24:00;14.20;99.90
15152;DHT22;7676;50.900;6.234;2022-11-03T15:29:22;14.30;99.90
15152;DHT22;7676;50.900;6.234;2022-11-03T15:34:25;14.60;99.90
15152;DHT22;7676;50.900;6.234;2022-11-03T15:39:28;14.20;99.90
15152;DHT22;7676;50.900;6.234;2022-11-03T15:44:30;14.30;99.90
15152;DHT22;7676;50.900;6.234;2022-11-03T15:49:33;14.30;99.90
15152;DHT22;7676;50.900;6.234;2022-11-03T15:54:35;14.30;99.90
15152;DHT22;7676;50.900;6.234;2022-11-03T15:59:43;14.30;99.90
15152;DHT22;7676;50.900;6.234;2022-11-03T16:04:46;14.20;99.90
15152;DHT22;7676;50.900;6.234;2022-11-03T16:14:51;14.20;99.90
15152;DHT22;7676;50.900;6.234;2022-11-03T16:19:54;14.10;99.90
15152;DHT22;7676;50.900;6.234;2022-11-03T16:24:58;14.20;99.90
15152;DHT22;7676;50.900;6.234;2022-11-03T16:30:00;14.30;99.90
15152;DHT22;7676;50.900;6.234;2022-11-03T16:35:03;14.10;99.90
15152;DHT22;7676;50.900;6.234;2022-11-03T16:40:06;14.10;99.90
15152;DHT22;7676;50.900;6.234;2022-11-03T16:45:17;14.20;99.90
15152;DHT22;7676;50.900;6.234;2022-11-03T16:50:20;14.50;99.90
15152;DHT22;7676;50.900;6.234;2022-11-03T16:55:22;14.50;99.90
15152;DHT22;7676;50.900;6.234;2022-11-03T17:00:24;14.50;99.90
15152;DHT22;7676;50.900;6.234;2022-11-03T17:05:27;14.50;99.90
15152;DHT22;7676;50.900;6.234;2022-11-03T17:10:29;14.60;99.90
15152;DHT22;7676;50.900;6.234;2022-11-03T17:15:33;12.90;99.90
15152;DHT22;7676;50.900;6.234;2022-11-03T17:20:35;14.50;99.90
15152;DHT22;7676;50.900;6.234;2022-11-03T17:25:37;14.40;99.90
15152;DHT22;7676;50.900;6.234;2022-11-03T17:30:40;14.60;99.90
15152;DHT22;7676;50.900;6.234;2022-11-03T17:35:42;14.70;99.90
15152;DHT22;7676;50.900;6.234;2022-11-03T17:40:47;14.50;99.90
15152;DHT22;7676;50.900;6.234;2022-11-03T17:45:50;14.70;99.90
15152;DHT22;7676;50.900;6.234;2022-11-03T17:50:54;14.60;99.90
15152;DHT22;7676;50.900;6.234;2022-11-03T17:55:58;14.60;99.90
15152;DHT22;7676;50.900;6.234;2022-11-03T18:01:22;14.90;99.90
15152;DHT22;7676;50.900;6.234;2022-11-03T18:06:26;15.00;99.90
15152;DHT22;7676;50.900;6.234;2022-11-03T18:11:29;14.90;99.90
15152;DHT22;7676;50.900;6.234;2022-11-03T18:16:50;14.90;99.90
15152;DHT22;7676;50.900;6.234;2022-11-03T18:21:53;15.00;99.90
15152;DHT22;7676;50.900;6.234;2022-11-03T18:26:55;15.40;99.90
15152;DHT22;7676;50.900;6.234;2022-11-03T18:31:58;15.40;99.90
15152;DHT22;7676;50.900;6.234;2022-11-03T18:37:02;15.30;99.90
15152;DHT22;7676;50.900;6.234;2022-11-03T18:42:14;15.20;99.90
15152;DHT22;7676;50.900;6.234;2022-11-03T18:47:17;15.10;99.90
15152;DHT22;7676;50.900;6.234;2022-11-03T18:52:19;14.90;99.90
15152;DHT22;7676;50.900;6.234;2022-11-03T18:57:23;15.00;99.90
15152;DHT22;7676;50.900;6.234;2022-11-03T19:02:27;15.30;99.90
15152;DHT22;7676;50.900;6.234;2022-11-03T19:07:30;15.00;99.90
15152;DHT22;7676;50.900;6.234;2022-11-03T19:12:34;15.10;99.90
15152;DHT22;7676;50.900;6.234;2022-11-03T19:17:40;14.90;99.90
15152;DHT22;7676;50.900;6.234;2022-11-03T19:22:43;14.80;99.90
15152;DHT22;7676;50.900;6.234;2022-11-03T19:27:47;14.70;99.90
15152;DHT22;7676;50.900;6.234;2022-11-03T19:32:52;14.70;99.90
15152;DHT22;7676;50.900;6.234;2022-11-03T19:38:05;14.50;99.90
15152;DHT22;7676;50.900;6.234;2022-11-03T19:43:12;14.40;99.90
15152;DHT22;7676;50.900;6.234;2022-11-03T19:48:14;14.50;99.90
15152;DHT22;7676;50.900;6.234;2022-11-03T19:53:28;14.70;99.90
15152;DHT22;7676;50.900;6.234;2022-11-03T19:58:31;14.70;99.90
15152;DHT22;7676;50.900;6.234;2022-11-03T20:03:33;14.60;99.90
15152;DHT22;7676;50.900;6.234;2022-11-03T20:08:36;14.60;99.90
15152;DHT22;7676;50.900;6.234;2022-11-03T20:13:41;14.60;99.90
15152;DHT22;7676;50.900;6.234;2022-11-03T20:18:44;14.30;99.90
15152;DHT22;7676;50.900;6.234;2022-11-03T20:23:47;14.40;99.90
15152;DHT22;7676;50.900;6.234;2022-11-03T20:28:52;14.40;99.90
15152;DHT22;7676;50.900;6.234;2022-11-03T20:33:54;14.20;99.90
15152;DHT22;7676;50.900;6.234;2022-11-03T20:38:57;14.30;99.90
15152;DHT22;7676;50.900;6.234;2022-11-03T20:44:01;14.20;99.90
15152;DHT22;7676;50.900;6.234;2022-11-03T20:49:04;14.30;99.90
15152;DHT22;7676;50.900;6.234;2022-11-03T20:54:14;14.10;99.90
15152;DHT22;7676;50.900;6.234;2022-11-03T20:59:17;14.20;99.90
15152;DHT22;7676;50.900;6.234;2022-11-03T21:04:22;14.10;99.90
15152;DHT22;7676;50.900;6.234;2022-11-03T21:09:25;14.10;99.90
15152;DHT22;7676;50.900;6.234;2022-11-03T21:14:28;14.00;99.90
15152;DHT22;7676;50.900;6.234;2022-11-03T21:19:32;13.90;99.90
15152;DHT22;7676;50.900;6.234;2022-11-03T21:24:53;13.90;99.90
15152;DHT22;7676;50.900;6.234;2022-11-03T21:29:55;13.90;99.90
15152;DHT22;7676;50.900;6.234;2022-11-03T21:35:01;13.70;99.90
15152;DHT22;7676;50.900;6.234;2022-11-03T21:40:03;13.70;99.90
15152;DHT22;7676;50.900;6.234;2022-11-03T21:45:07;13.60;99.90
15152;DHT22;7676;50.900;6.234;2022-11-03T21:50:10;13.30;99.90
15152;DHT22;7676;50.900;6.234;2022-11-03T21:55:14;13.00;99.90
15152;DHT22;7676;50.900;6.234;2022-11-03T22:00:17;12.80;99.90
15152;DHT22;7676;50.900;6.234;2022-11-03T22:05:19;13.00;99.90
15152;DHT22;7676;50.900;6.234;2022-11-03T22:10:21;12.80;99.90
15152;DHT22;7676;50.900;6.234;2022-11-03T22:15:24;13.10;99.90
15152;DHT22;7676;50.900;6.234;2022-11-03T22:20:45;13.10;99.90
15152;DHT22;7676;50.900;6.234;2022-11-03T22:26:09;13.30;99.90
15152;DHT22;7676;50.900;6.234;2022-11-03T22:31:31;13.30;99.90
15152;DHT22;7676;50.900;6.234;2022-11-03T22:36:42;13.20;99.90
15152;DHT22;7676;50.900;6.234;2022-11-03T22:41:45;13.10;99.90
15152;DHT22;7676;50.900;6.234;2022-11-03T22:47:08;13.30;99.90
15152;DHT22;7676;50.900;6.234;2022-11-03T22:52:12;13.20;99.90
15152;DHT22;7676;50.900;6.234;2022-11-03T22:57:19;13.40;99.90
15152;DHT22;7676;50.900;6.234;2022-11-03T23:02:22;13.90;99.90
15152;DHT22;7676;50.900;6.234;2022-11-03T23:07:24;13.50;99.90
15152;DHT22;7676;50.900;6.234;2022-11-03T23:12:34;13.50;99.90
15152;DHT22;7676;50.900;6.234;2022-11-03T23:17:36;13.30;99.90
15152;DHT22;7676;50.900;6.234;2022-11-03T23:22:57;13.00;99.90
15152;DHT22;7676;50.900;6.234;2022-11-03T23:27:59;13.20;99.90
15152;DHT22;7676;50.900;6.234;2022-11-03T23:33:02;13.00;99.90
15152;DHT22;7676;50.900;6.234;2022-11-03T23:38:04;12.80;99.90
15152;DHT22;7676;50.900;6.234;2022-11-03T23:43:08;12.90;99.90
15152;DHT22;7676;50.900;6.234;2022-11-03T23:48:10;13.10;99.90
15152;DHT22;7676;50.900;6.234;2022-11-03T23:53:31;13.00;99.90
15152;DHT22;7676;50.900;6.234;2022-11-03T23:58:33;13.00;99.90
